createdAt,value
2022-12-17T00:02:03.391Z,39.51
2022-12-17T00:04:48.525Z,39.36
2022-12-17T00:07:33.500Z,39.19
2022-12-17T00:10:20.241Z,39.17
2022-12-17T00:13:05.347Z,39.39
2022-12-17T00:15:50.377Z,39.42
2022-12-17T00:18:35.814Z,39.28
2022-12-17T00:21:20.923Z,38.78
2022-12-17T00:24:05.986Z,39.20
2022-12-17T00:26:52.579Z,39.18
2022-12-17T00:29:37.803Z,39.21
2022-12-17T00:32:23.109Z,39.21
2022-12-17T00:35:08.357Z,39.04
2022-12-17T00:37:53.490Z,39.16
2022-12-17T00:40:38.446Z,39.08
2022-12-17T00:43:25.450Z,38.99
2022-12-17T00:46:10.972Z,38.80
2022-12-17T00:48:56.387Z,38.91
2022-12-17T00:51:41.317Z,38.78
2022-12-17T00:54:26.145Z,38.91
2022-12-17T00:57:11.061Z,38.86
2022-12-17T00:59:57.683Z,38.88
2022-12-17T01:02:43.161Z,38.90
2022-12-17T01:05:28.422Z,38.77
2022-12-17T01:08:13.311Z,38.81
2022-12-17T01:10:58.403Z,38.82
2022-12-17T01:13:44.951Z,38.72
2022-12-17T01:16:31.974Z,38.88
2022-12-17T01:19:31.586Z,38.80
2022-12-17T01:22:28.071Z,38.80
2022-12-17T01:25:13.286Z,38.69
2022-12-17T01:27:58.468Z,38.85
2022-12-17T01:30:43.802Z,38.86
2022-12-17T01:33:30.296Z,38.72
2022-12-17T01:36:15.506Z,38.93
2022-12-17T01:39:00.623Z,38.78
2022-12-17T01:41:51.177Z,38.55
2022-12-17T01:45:03.003Z,38.91
2022-12-17T01:47:49.001Z,38.67
2022-12-17T01:50:35.694Z,38.57
2022-12-17T01:53:21.615Z,38.77
2022-12-17T01:56:06.686Z,38.81
2022-12-17T01:59:00.290Z,38.82
2022-12-17T02:01:45.629Z,38.77
2022-12-17T02:04:31.011Z,38.68
2022-12-17T02:07:21.193Z,38.88
2022-12-17T02:10:08.533Z,38.87
2022-12-17T02:12:56.052Z,38.91
2022-12-17T02:15:59.716Z,38.90
2022-12-17T02:18:48.587Z,38.82
2022-12-17T02:21:33.721Z,38.72
2022-12-17T02:24:22.035Z,38.87
2022-12-17T02:27:09.325Z,39.01
2022-12-17T02:29:55.292Z,38.88
2022-12-17T02:32:41.888Z,39.00
2022-12-17T02:35:34.592Z,38.80
2022-12-17T02:38:19.722Z,38.95
2022-12-17T02:41:05.327Z,38.80
2022-12-17T02:43:51.530Z,38.63
2022-12-17T02:46:37.487Z,38.86
2022-12-17T02:49:22.946Z,38.87
2022-12-17T02:52:10.320Z,38.84
2022-12-17T02:54:55.369Z,38.90
2022-12-17T02:57:43.751Z,38.83
2022-12-17T03:00:31.697Z,38.64
2022-12-17T03:03:16.603Z,38.84
2022-12-17T03:06:01.774Z,38.41
2022-12-17T03:08:47.115Z,38.68
2022-12-17T03:11:32.161Z,38.53
2022-12-17T03:14:19.017Z,38.73
2022-12-17T03:17:05.767Z,38.65
2022-12-17T03:19:56.320Z,38.85
2022-12-17T03:22:41.486Z,38.93
2022-12-17T03:25:27.198Z,39.06
2022-12-17T03:28:12.712Z,38.86
2022-12-17T03:31:00.067Z,38.89
2022-12-17T03:33:49.869Z,38.79
2022-12-17T03:36:35.083Z,38.97
2022-12-17T03:39:28.388Z,38.86
2022-12-17T03:42:13.574Z,39.25
2022-12-17T03:44:58.837Z,38.91
2022-12-17T03:47:46.090Z,39.20
2022-12-17T03:50:32.561Z,39.08
2022-12-17T03:53:18.157Z,39.02
2022-12-17T03:56:03.305Z,39.11
2022-12-17T03:58:48.679Z,39.21
2022-12-17T04:01:34.011Z,39.22
2022-12-17T04:04:19.132Z,38.97
2022-12-17T04:07:05.462Z,39.27
2022-12-17T04:09:50.497Z,39.02
2022-12-17T04:12:35.391Z,39.09
2022-12-17T04:15:20.398Z,39.02
2022-12-17T04:18:05.534Z,38.93
2022-12-17T04:20:50.478Z,38.88
2022-12-17T04:23:39.453Z,38.94
2022-12-17T04:26:24.566Z,38.90
2022-12-17T04:29:09.838Z,38.95
2022-12-17T04:31:54.783Z,39.00
2022-12-17T04:34:39.664Z,38.87
2022-12-17T04:37:24.626Z,38.96
2022-12-17T04:40:11.356Z,38.87
2022-12-17T04:42:56.253Z,38.94
2022-12-17T04:45:59.629Z,38.77
2022-12-17T04:48:44.704Z,38.63
2022-12-17T04:51:31.146Z,38.52
2022-12-17T04:54:16.615Z,38.47
2022-12-17T04:57:03.095Z,38.35
2022-12-17T04:59:49.634Z,38.22
2022-12-17T05:02:38.214Z,38.00
2022-12-17T05:05:26.394Z,38.09
2022-12-17T05:08:23.278Z,38.05
2022-12-17T05:11:08.361Z,37.92
2022-12-17T05:13:54.798Z,37.63
2022-12-17T05:16:39.993Z,37.70
2022-12-17T05:19:26.341Z,37.66
2022-12-17T05:22:11.613Z,37.56
2022-12-17T05:24:56.891Z,37.33
2022-12-17T05:27:41.795Z,37.38
2022-12-17T05:30:28.781Z,37.28
2022-12-17T05:33:17.931Z,37.18
2022-12-17T05:36:03.254Z,37.13
2022-12-17T05:38:48.345Z,36.98
2022-12-17T05:41:33.478Z,36.88
2022-12-17T05:44:18.693Z,36.94
2022-12-17T05:47:05.195Z,36.91
2022-12-17T05:49:50.049Z,36.70
2022-12-17T05:52:34.832Z,36.78
2022-12-17T05:55:19.775Z,36.56
2022-12-17T05:58:04.681Z,36.69
2022-12-17T06:00:49.487Z,36.48
2022-12-17T06:03:36.778Z,36.57
2022-12-17T06:06:22.207Z,36.46
2022-12-17T06:09:07.156Z,36.37
2022-12-17T06:11:52.023Z,36.43
2022-12-17T06:14:36.892Z,36.31
2022-12-17T06:17:22.019Z,36.27
2022-12-17T06:20:08.688Z,36.18
2022-12-17T06:22:53.476Z,36.17
2022-12-17T06:25:40.635Z,36.10
2022-12-17T06:28:25.825Z,36.18
2022-12-17T06:31:11.505Z,36.09
2022-12-17T06:33:56.408Z,35.90
2022-12-17T06:36:42.605Z,35.89
2022-12-17T06:39:27.783Z,36.11
2022-12-17T06:42:12.829Z,36.02
2022-12-17T06:44:57.995Z,35.99
2022-12-17T06:47:43.166Z,35.75
2022-12-17T06:50:28.316Z,35.76
2022-12-17T06:53:19.099Z,35.72
2022-12-17T06:56:04.211Z,35.67
2022-12-17T06:58:49.192Z,35.60
2022-12-17T07:01:34.192Z,35.39
2022-12-17T07:04:19.461Z,35.34
2022-12-17T07:07:04.251Z,35.53
2022-12-17T07:09:50.641Z,35.44
2022-12-17T07:12:35.566Z,35.43
2022-12-17T07:18:33.218Z,35.20
2022-12-17T07:21:18.103Z,35.32
2022-12-17T07:24:03.153Z,35.40
2022-12-17T07:26:49.576Z,35.14
2022-12-17T07:29:34.676Z,35.00
2022-12-17T07:32:19.659Z,35.24
2022-12-17T07:35:04.577Z,35.02
2022-12-17T07:37:49.593Z,35.14
2022-12-17T07:40:34.537Z,34.99
2022-12-17T07:43:27.757Z,35.22
2022-12-17T07:46:12.769Z,35.05
2022-12-17T07:48:57.868Z,35.21
2022-12-17T07:51:51.013Z,35.02
2022-12-17T07:54:36.146Z,34.80
2022-12-17T07:57:21.368Z,34.94
2022-12-17T08:00:13.164Z,34.97
2022-12-17T08:02:58.335Z,34.96
2022-12-17T08:05:43.794Z,34.76
2022-12-17T08:08:29.658Z,34.78
2022-12-17T08:11:15.075Z,34.71
2022-12-17T08:14:00.413Z,34.71
2022-12-17T08:16:47.198Z,34.45
2022-12-17T08:19:32.234Z,34.42
2022-12-17T08:22:17.328Z,34.51
2022-12-17T08:25:02.220Z,34.33
2022-12-17T08:27:47.431Z,34.47
2022-12-17T08:30:32.871Z,34.14
2022-12-17T08:33:21.884Z,34.33
2022-12-17T08:36:10.336Z,34.29
2022-12-17T08:38:51.851Z,33.86
2022-12-17T08:41:37.870Z,34.10
2022-12-17T08:44:34.646Z,34.14
2022-12-17T08:47:19.851Z,34.15
2022-12-17T08:50:06.216Z,34.32
2022-12-17T08:52:51.466Z,34.03
2022-12-17T08:55:41.547Z,34.11
2022-12-17T08:58:26.811Z,34.18
2022-12-17T09:01:12.567Z,34.19
2022-12-17T09:03:57.819Z,34.11
2022-12-17T09:06:45.855Z,34.10
2022-12-17T09:09:30.775Z,33.77
2022-12-17T09:12:15.782Z,33.79
2022-12-17T09:15:01.055Z,33.79
2022-12-17T09:17:46.526Z,33.98
2022-12-17T09:20:31.888Z,34.29
2022-12-17T09:23:18.684Z,33.84
2022-12-17T09:26:10.779Z,33.80
2022-12-17T09:28:56.255Z,33.67
2022-12-17T09:31:42.589Z,33.75
2022-12-17T09:34:27.446Z,33.74
2022-12-17T09:37:13.196Z,33.84
2022-12-17T09:39:59.502Z,33.48
2022-12-17T09:42:51.722Z,33.69
2022-12-17T09:45:39.428Z,33.60
2022-12-17T09:48:32.109Z,33.52
2022-12-17T09:51:17.411Z,33.51
2022-12-17T09:54:03.961Z,33.47
2022-12-17T09:56:50.713Z,33.70
2022-12-17T09:59:37.607Z,33.60
2022-12-17T10:02:25.150Z,33.58
2022-12-17T10:05:10.217Z,33.22
2022-12-17T10:07:55.984Z,33.52
2022-12-17T10:10:43.259Z,33.34
2022-12-17T10:13:31.913Z,33.20
2022-12-17T10:16:35.601Z,33.02
2022-12-17T10:19:21.189Z,33.18
2022-12-17T10:22:06.724Z,33.38
2022-12-17T10:24:52.698Z,33.28
2022-12-17T10:27:39.868Z,33.26
2022-12-17T10:30:31.593Z,33.44
2022-12-17T10:33:16.225Z,33.16
2022-12-17T10:36:01.247Z,33.15
2022-12-17T10:38:47.633Z,32.99
2022-12-17T10:41:42.084Z,33.13
2022-12-17T10:44:43.503Z,33.38
2022-12-17T10:47:31.648Z,33.16
2022-12-17T10:50:16.308Z,33.16
2022-12-17T10:53:03.061Z,33.02
2022-12-17T10:55:48.647Z,32.85
2022-12-17T10:58:49.093Z,32.91
2022-12-17T11:01:36.907Z,32.69
2022-12-17T11:04:37.729Z,32.81
2022-12-17T11:07:22.716Z,32.94
2022-12-17T11:10:10.109Z,32.94
2022-12-17T11:12:57.762Z,32.83
2022-12-17T11:15:43.517Z,32.74
2022-12-17T11:18:32.252Z,32.75
2022-12-17T11:21:19.310Z,32.71
2022-12-17T11:24:05.211Z,32.47
2022-12-17T11:26:51.469Z,32.76
2022-12-17T11:29:37.464Z,32.79
2022-12-17T11:32:29.222Z,32.60
2022-12-17T11:35:18.990Z,32.53
2022-12-17T11:38:07.891Z,32.44
2022-12-17T11:40:54.702Z,32.64
2022-12-17T11:43:41.287Z,32.45
2022-12-17T11:46:27.411Z,32.53
2022-12-17T11:49:15.397Z,32.39
2022-12-17T11:52:03.055Z,32.60
2022-12-17T11:54:52.533Z,32.42
2022-12-17T11:57:39.472Z,32.39
2022-12-17T12:00:26.606Z,32.77
2022-12-17T12:03:13.370Z,32.47
2022-12-17T12:06:01.118Z,32.38
2022-12-17T12:08:48.192Z,32.48
2022-12-17T12:11:37.501Z,32.81
2022-12-17T12:14:24.543Z,32.35
2022-12-17T12:17:46.532Z,32.66
2022-12-17T12:20:47.349Z,32.41
2022-12-17T12:23:36.042Z,32.31
2022-12-17T12:26:22.577Z,32.39
2022-12-17T12:29:11.154Z,32.36
2022-12-17T12:32:04.715Z,32.10
2022-12-17T12:34:51.571Z,32.48
2022-12-17T12:37:36.924Z,32.41
2022-12-17T12:40:24.178Z,32.07
2022-12-17T12:43:12.825Z,32.25
2022-12-17T12:46:02.608Z,32.16
2022-12-17T12:48:53.337Z,32.23
2022-12-17T12:51:39.248Z,32.30
2022-12-17T12:54:39.930Z,32.53
2022-12-17T12:57:39.763Z,32.20
2022-12-17T13:00:26.619Z,32.10
2022-12-17T13:03:13.290Z,32.33
2022-12-17T13:05:40.447Z,32.14
2022-12-17T13:08:19.812Z,32.29
2022-12-17T13:10:48.214Z,32.14
2022-12-17T13:13:22.339Z,31.94
2022-12-17T13:15:51.140Z,32.03
2022-12-17T13:18:22.132Z,32.09
2022-12-17T13:20:57.938Z,32.18
2022-12-17T13:23:32.967Z,31.95
2022-12-17T13:26:17.727Z,32.06
2022-12-17T13:28:50.171Z,31.77
2022-12-17T13:31:18.263Z,31.96
2022-12-17T13:33:50.698Z,31.95
2022-12-17T13:36:19.184Z,31.95
2022-12-17T13:38:49.793Z,31.85
2022-12-17T13:41:18.554Z,31.98
2022-12-17T13:43:46.570Z,32.01
2022-12-17T13:46:21.526Z,31.89
2022-12-17T13:48:57.596Z,31.97
2022-12-17T13:51:26.341Z,31.96
2022-12-17T13:53:54.931Z,31.76
2022-12-17T13:56:26.700Z,31.64
2022-12-17T13:58:54.578Z,32.02
2022-12-17T14:01:23.096Z,31.68
2022-12-17T14:04:05.761Z,31.80
2022-12-17T14:06:37.077Z,31.61
2022-12-17T14:09:04.850Z,31.74
2022-12-17T14:11:51.531Z,31.98
2022-12-17T14:14:21.385Z,31.60
2022-12-17T14:17:08.211Z,31.75
2022-12-17T14:19:35.897Z,31.79
2022-12-17T14:22:04.918Z,31.77
2022-12-17T14:24:33.264Z,31.74
2022-12-17T14:27:01.333Z,31.47
2022-12-17T14:29:30.088Z,31.47
2022-12-17T14:32:22.744Z,32.01
2022-12-17T14:34:57.248Z,31.56
2022-12-17T14:37:30.759Z,31.80
2022-12-17T14:40:01.100Z,31.38
2022-12-17T14:42:30.369Z,31.62
2022-12-17T14:44:59.050Z,31.39
2022-12-17T14:47:28.325Z,31.42
2022-12-17T14:49:57.290Z,31.58
2022-12-17T14:52:32.918Z,31.61
2022-12-17T14:55:00.573Z,31.27
2022-12-17T14:57:29.569Z,31.52
2022-12-17T14:59:57.252Z,31.48
2022-12-17T15:02:27.164Z,31.20
2022-12-17T15:04:55.350Z,31.50
2022-12-17T15:07:25.022Z,31.23
2022-12-17T15:09:54.335Z,31.38
2022-12-17T15:12:22.689Z,31.62
2022-12-17T15:14:50.376Z,31.27
2022-12-17T15:17:18.944Z,31.18
2022-12-17T15:19:50.180Z,31.32
2022-12-17T15:22:22.558Z,31.23
2022-12-17T15:24:50.195Z,31.19
2022-12-17T15:27:19.879Z,31.15
2022-12-17T15:29:47.536Z,31.49
2022-12-17T15:32:18.675Z,31.32
2022-12-17T15:34:46.994Z,31.23
2022-12-17T15:37:15.246Z,31.17
2022-12-17T15:39:42.937Z,31.28
2022-12-17T15:42:29.482Z,31.25
2022-12-17T15:44:58.434Z,31.18
2022-12-17T15:47:26.818Z,31.06
2022-12-17T15:49:54.422Z,31.00
2022-12-17T15:52:22.285Z,31.07
2022-12-17T15:54:51.099Z,31.16
2022-12-17T15:57:19.020Z,31.03
2022-12-17T15:59:47.438Z,31.17
2022-12-17T16:02:46.970Z,30.87
2022-12-17T16:05:16.514Z,30.95
2022-12-17T16:07:44.463Z,31.13
2022-12-17T16:10:12.870Z,30.86
2022-12-17T16:12:40.499Z,30.89
2022-12-17T16:15:10.448Z,31.13
2022-12-17T16:17:38.114Z,30.76
2022-12-17T16:20:07.387Z,30.99
2022-12-17T16:22:36.405Z,31.05
2022-12-17T16:25:05.655Z,31.01
2022-12-17T16:27:33.321Z,30.79
2022-12-17T16:30:01.781Z,30.91
2022-12-17T16:32:36.043Z,30.99
2022-12-17T16:35:06.663Z,30.67
2022-12-17T16:37:36.933Z,30.75
2022-12-17T16:40:05.640Z,30.93
2022-12-17T16:42:33.331Z,30.75
2022-12-17T16:45:01.795Z,30.82
2022-12-17T16:47:29.376Z,30.76
2022-12-17T16:49:58.376Z,30.66
2022-12-17T16:52:26.057Z,30.83
2022-12-17T16:54:55.796Z,30.67
2022-12-17T16:57:23.417Z,30.69
2022-12-17T16:59:51.777Z,30.74
2022-12-17T17:02:19.763Z,30.73
2022-12-17T17:04:48.262Z,30.60
2022-12-17T17:07:15.924Z,30.64
2022-12-17T17:09:44.732Z,30.69
2022-12-17T17:12:13.780Z,30.37
2022-12-17T17:14:46.468Z,30.66
2022-12-17T17:17:14.062Z,30.66
2022-12-17T17:19:41.674Z,30.60
2022-12-17T17:22:10.058Z,30.46
2022-12-17T17:24:37.709Z,30.49
2022-12-17T17:27:06.469Z,30.59
2022-12-17T17:29:35.568Z,30.37
2022-12-17T17:32:12.984Z,30.32
2022-12-17T17:34:42.004Z,30.38
2022-12-17T17:37:10.384Z,30.52
2022-12-17T17:39:38.032Z,30.46
2022-12-17T17:42:06.477Z,30.50
2022-12-17T17:44:35.486Z,30.27
2022-12-17T17:47:03.968Z,30.37
2022-12-17T17:49:31.699Z,30.67
2022-12-17T17:52:09.375Z,30.79
2022-12-17T17:54:38.297Z,30.57
2022-12-17T17:57:06.693Z,30.63
2022-12-17T17:59:35.751Z,30.46
2022-12-17T18:02:04.280Z,30.37
2022-12-17T18:04:32.043Z,30.51
2022-12-17T18:09:49.306Z,30.36
2022-12-17T18:12:32.500Z,30.23
2022-12-17T18:15:18.392Z,30.16
2022-12-17T18:17:47.354Z,30.23
2022-12-17T18:20:15.055Z,30.39
2022-12-17T18:22:43.464Z,30.15
2022-12-17T18:25:11.086Z,30.43
2022-12-17T18:27:39.486Z,30.26
2022-12-17T18:30:09.232Z,30.23
2022-12-17T18:32:52.553Z,30.20
2022-12-17T18:35:20.913Z,30.36
2022-12-17T18:37:49.251Z,30.22
2022-12-17T18:40:16.944Z,30.36
2022-12-17T18:43:02.652Z,30.36
2022-12-17T18:45:31.644Z,30.22
2022-12-17T18:48:00.467Z,30.45
2022-12-17T18:50:28.084Z,30.28
2022-12-17T18:52:56.364Z,30.16
2022-12-17T18:55:24.072Z,30.29
2022-12-17T18:57:52.465Z,30.36
2022-12-17T19:00:20.229Z,30.23
2022-12-17T19:02:51.887Z,30.23
2022-12-17T19:05:19.707Z,30.24
2022-12-17T19:07:47.403Z,30.32
2022-12-17T19:10:15.772Z,30.38
2022-12-17T19:12:43.352Z,30.34
2022-12-17T19:15:12.065Z,30.36
2022-12-17T19:17:39.683Z,30.47
2022-12-17T19:20:11.537Z,30.17
2022-12-17T19:22:39.126Z,29.90
2022-12-17T19:25:07.636Z,29.96
2022-12-17T19:27:35.255Z,30.10
2022-12-17T19:30:03.656Z,30.01
2022-12-17T19:32:32.252Z,29.99
2022-12-17T19:35:05.585Z,29.84
2022-12-17T19:37:34.698Z,29.87
2022-12-17T19:40:03.600Z,30.04
2022-12-17T19:42:37.148Z,30.20
2022-12-17T19:45:06.614Z,30.06
2022-12-17T19:47:34.247Z,30.06
2022-12-17T19:50:02.609Z,29.75
2022-12-17T19:52:30.291Z,29.94
2022-12-17T19:55:00.183Z,29.85
2022-12-17T19:57:27.913Z,29.84
2022-12-17T19:59:56.285Z,29.76
2022-12-17T20:02:28.329Z,29.75
2022-12-17T20:04:59.814Z,29.66
2022-12-17T20:07:27.434Z,29.74
2022-12-17T20:09:55.745Z,29.88
2022-12-17T20:12:24.846Z,29.93
2022-12-17T20:14:53.306Z,29.92
2022-12-17T20:17:21.423Z,30.05
2022-12-17T20:19:50.610Z,30.01
2022-12-17T20:22:18.335Z,29.95
2022-12-17T20:24:48.589Z,30.05
2022-12-17T20:27:17.417Z,29.53
2022-12-17T20:29:46.448Z,29.62
2022-12-17T20:32:15.041Z,29.83
2022-12-17T20:34:43.511Z,29.78
2022-12-17T20:37:11.837Z,29.59
2022-12-17T20:39:39.473Z,29.71
2022-12-17T20:42:08.093Z,29.47
2022-12-17T20:44:35.736Z,29.81
2022-12-17T20:47:05.509Z,29.77
2022-12-17T20:49:33.243Z,29.72
2022-12-17T20:52:02.703Z,29.55
2022-12-17T20:54:30.415Z,29.60
2022-12-17T20:56:58.811Z,29.54
2022-12-17T20:59:26.525Z,29.62
2022-12-17T21:01:56.442Z,29.60
2022-12-17T21:04:25.979Z,29.26
2022-12-17T21:06:54.515Z,29.51
2022-12-17T21:09:25.424Z,29.55
2022-12-17T21:11:53.974Z,29.45
2022-12-17T21:14:21.666Z,29.50
2022-12-17T21:16:50.102Z,29.55
2022-12-17T21:19:21.942Z,29.73
2022-12-17T21:21:51.691Z,29.71
2022-12-17T21:24:19.322Z,29.71
2022-12-17T21:26:47.791Z,29.56
2022-12-17T21:29:15.666Z,29.67
2022-12-17T21:31:44.839Z,29.66
2022-12-17T21:34:13.600Z,29.61
2022-12-17T21:36:41.253Z,29.36
2022-12-17T21:39:10.944Z,29.51
2022-12-17T21:41:39.321Z,29.40
2022-12-17T21:44:12.748Z,29.29
2022-12-17T21:46:41.301Z,29.36
2022-12-17T21:49:09.706Z,29.25
2022-12-17T21:51:37.567Z,29.59
2022-12-17T21:54:09.035Z,29.52
2022-12-17T21:56:39.032Z,29.25
2022-12-17T21:59:07.411Z,29.28
2022-12-17T22:01:35.140Z,29.47
2022-12-17T22:04:04.567Z,29.42
2022-12-17T22:06:38.931Z,29.36
2022-12-17T22:09:17.781Z,29.34
2022-12-17T22:12:16.715Z,29.39
2022-12-17T22:14:45.249Z,29.24
2022-12-17T22:17:12.893Z,29.45
2022-12-17T22:19:41.345Z,29.26
2022-12-17T22:22:08.967Z,29.40
2022-12-17T22:24:37.407Z,29.36
2022-12-17T22:27:08.971Z,29.46
2022-12-17T22:29:55.373Z,29.44
2022-12-17T22:32:39.564Z,29.49
2022-12-17T22:36:04.163Z,29.43
2022-12-17T22:40:42.297Z,29.73
2022-12-17T22:44:31.889Z,29.35
2022-12-17T22:44:43.046Z,29.37
2022-12-17T22:46:22.746Z,29.43
2022-12-17T22:48:50.458Z,29.06
2022-12-17T22:51:24.069Z,29.38
2022-12-17T22:54:00.915Z,29.30
2022-12-17T22:57:02.899Z,29.52
2022-12-17T22:59:19.026Z,29.22
2022-12-17T23:01:47.462Z,29.44
2022-12-17T23:04:15.905Z,29.23
2022-12-17T23:06:45.687Z,29.11
2022-12-17T23:09:13.327Z,29.34
2022-12-17T23:11:41.204Z,29.45
2022-12-17T23:14:08.918Z,29.39
2022-12-17T23:16:38.032Z,29.31
2022-12-17T23:19:06.336Z,29.40
2022-12-17T23:21:34.125Z,29.22
2022-12-17T23:24:01.826Z,29.11
2022-12-17T23:26:30.213Z,29.46
2022-12-17T23:28:58.595Z,29.29
2022-12-17T23:31:26.747Z,29.31
2022-12-17T23:33:55.837Z,29.37
2022-12-17T23:36:24.163Z,29.09
2022-12-17T23:38:51.956Z,29.32
2022-12-17T23:41:20.271Z,29.40
2022-12-17T23:43:48.070Z,29.16
2022-12-17T23:46:15.847Z,29.16
2022-12-17T23:48:58.107Z,29.31
2022-12-17T23:51:26.072Z,29.16
2022-12-17T23:53:53.802Z,29.06
2022-12-17T23:56:22.126Z,29.00
2022-12-17T23:58:49.887Z,28.83
